sensor_id;sensor_type;location;lat;lon;timestamp;P1;durP1;ratioP1;P2;durP2;ratioP2
73816;SDS011;62146;53.232;-1.304;2023-04-01T00:01:23;7.38;;;3.33;;
73816;SDS011;62146;53.232;-1.304;2023-04-01T00:03:51;7.03;;;2.80;;
73816;SDS011;62146;53.232;-1.304;2023-04-01T00:06:18;6.88;;;2.83;;
73816;SDS011;62146;53.232;-1.304;2023-04-01T00:08:45;7.68;;;3.45;;
73816;SDS011;62146;53.232;-1.304;2023-04-01T00:11:13;7.93;;;3.33;;
73816;SDS011;62146;53.232;-1.304;2023-04-01T00:13:41;6.53;;;2.70;;
73816;SDS011;62146;53.232;-1.304;2023-04-01T00:16:08;6.73;;;2.83;;
73816;SDS011;62146;53.232;-1.304;2023-04-01T00:18:45;5.75;;;2.67;;
73816;SDS011;62146;53.232;-1.304;2023-04-01T00:21:16;7.47;;;2.70;;
73816;SDS011;62146;53.232;-1.304;2023-04-01T00:23:43;6.38;;;2.58;;
73816;SDS011;62146;53.232;-1.304;2023-04-01T00:26:10;6.57;;;2.40;;
73816;SDS011;62146;53.232;-1.304;2023-04-01T00:28:38;6.73;;;2.33;;
73816;SDS011;62146;53.232;-1.304;2023-04-01T00:31:06;4.90;;;2.40;;
73816;SDS011;62146;53.232;-1.304;2023-04-01T00:33:34;5.22;;;2.35;;
73816;SDS011;62146;53.232;-1.304;2023-04-01T00:36:20;5.50;;;2.50;;
73816;SDS011;62146;53.232;-1.304;2023-04-01T00:38:48;4.85;;;2.38;;
73816;SDS011;62146;53.232;-1.304;2023-04-01T00:41:16;5.23;;;2.10;;
73816;SDS011;62146;53.232;-1.304;2023-04-01T00:43:45;5.30;;;2.35;;
73816;SDS011;62146;53.232;-1.304;2023-04-01T00:46:13;5.13;;;2.47;;
73816;SDS011;62146;53.232;-1.304;2023-04-01T00:48:45;5.50;;;2.33;;
73816;SDS011;62146;53.232;-1.304;2023-04-01T00:51:20;4.90;;;2.22;;
73816;SDS011;62146;53.232;-1.304;2023-04-01T00:53:51;5.80;;;2.43;;
73816;SDS011;62146;53.232;-1.304;2023-04-01T00:56:27;5.60;;;2.60;;
73816;SDS011;62146;53.232;-1.304;2023-04-01T00:59:00;5.50;;;2.33;;
73816;SDS011;62146;53.232;-1.304;2023-04-01T01:01:28;5.97;;;2.35;;
73816;SDS011;62146;53.232;-1.304;2023-04-01T01:03:56;5.57;;;2.50;;
73816;SDS011;62146;53.232;-1.304;2023-04-01T01:06:29;6.70;;;2.80;;
73816;SDS011;62146;53.232;-1.304;2023-04-01T01:17:36;5.97;;;2.45;;
73816;SDS011;62146;53.232;-1.304;2023-04-01T01:25:48;5.90;;;2.55;;
73816;SDS011;62146;53.232;-1.304;2023-04-01T01:33:56;4.27;;;2.13;;
73816;SDS011;62146;53.232;-1.304;2023-04-01T01:36:28;5.88;;;2.63;;
73816;SDS011;62146;53.232;-1.304;2023-04-01T01:39:03;4.28;;;2.20;;
73816;SDS011;62146;53.232;-1.304;2023-04-01T01:41:32;5.60;;;2.22;;
73816;SDS011;62146;53.232;-1.304;2023-04-01T01:44:02;6.75;;;2.50;;
73816;SDS011;62146;53.232;-1.304;2023-04-01T01:46:32;5.07;;;2.10;;
73816;SDS011;62146;53.232;-1.304;2023-04-01T01:48:59;6.20;;;2.17;;
73816;SDS011;62146;53.232;-1.304;2023-04-01T01:51:28;5.32;;;2.03;;
73816;SDS011;62146;53.232;-1.304;2023-04-01T01:53:54;5.03;;;2.05;;
73816;SDS011;62146;53.232;-1.304;2023-04-01T01:56:22;5.15;;;2.10;;
73816;SDS011;62146;53.232;-1.304;2023-04-01T01:59:14;4.53;;;1.93;;
73816;SDS011;62146;53.232;-1.304;2023-04-01T02:01:42;5.43;;;2.00;;
73816;SDS011;62146;53.232;-1.304;2023-04-01T02:04:12;5.30;;;2.13;;
73816;SDS011;62146;53.232;-1.304;2023-04-01T02:06:45;5.15;;;1.80;;
73816;SDS011;62146;53.232;-1.304;2023-04-01T02:09:18;5.47;;;2.00;;
73816;SDS011;62146;53.232;-1.304;2023-04-01T02:11:47;4.10;;;1.80;;
73816;SDS011;62146;53.232;-1.304;2023-04-01T02:14:17;5.32;;;1.90;;
73816;SDS011;62146;53.232;-1.304;2023-04-01T02:16:55;6.05;;;1.95;;
73816;SDS011;62146;53.232;-1.304;2023-04-01T02:19:31;5.68;;;2.20;;
73816;SDS011;62146;53.232;-1.304;2023-04-01T02:22:03;4.70;;;1.92;;
73816;SDS011;62146;53.232;-1.304;2023-04-01T02:24:34;4.73;;;2.07;;
73816;SDS011;62146;53.232;-1.304;2023-04-01T02:27:03;5.25;;;2.00;;
73816;SDS011;62146;53.232;-1.304;2023-04-01T02:29:30;5.43;;;2.22;;
73816;SDS011;62146;53.232;-1.304;2023-04-01T02:31:57;4.88;;;2.15;;
73816;SDS011;62146;53.232;-1.304;2023-04-01T02:34:25;4.95;;;2.13;;
73816;SDS011;62146;53.232;-1.304;2023-04-01T02:36:52;6.57;;;2.60;;
73816;SDS011;62146;53.232;-1.304;2023-04-01T02:39:20;4.90;;;2.20;;
73816;SDS011;62146;53.232;-1.304;2023-04-01T02:41:47;4.75;;;2.00;;
73816;SDS011;62146;53.232;-1.304;2023-04-01T02:44:15;5.13;;;2.25;;
73816;SDS011;62146;53.232;-1.304;2023-04-01T02:46:42;6.28;;;2.10;;
73816;SDS011;62146;53.232;-1.304;2023-04-01T02:49:09;6.50;;;2.50;;
73816;SDS011;62146;53.232;-1.304;2023-04-01T02:51:36;5.40;;;2.20;;
73816;SDS011;62146;53.232;-1.304;2023-04-01T02:54:02;5.45;;;2.40;;
73816;SDS011;62146;53.232;-1.304;2023-04-01T02:56:29;6.07;;;2.53;;
73816;SDS011;62146;53.232;-1.304;2023-04-01T02:58:56;5.60;;;2.30;;
73816;SDS011;62146;53.232;-1.304;2023-04-01T03:01:22;5.03;;;2.30;;
73816;SDS011;62146;53.232;-1.304;2023-04-01T03:03:49;5.07;;;2.17;;
73816;SDS011;62146;53.232;-1.304;2023-04-01T03:06:16;6.82;;;2.40;;
73816;SDS011;62146;53.232;-1.304;2023-04-01T03:08:43;5.28;;;2.08;;
73816;SDS011;62146;53.232;-1.304;2023-04-01T03:11:10;5.72;;;2.40;;
73816;SDS011;62146;53.232;-1.304;2023-04-01T03:13:38;4.53;;;1.67;;
73816;SDS011;62146;53.232;-1.304;2023-04-01T03:16:06;5.05;;;2.00;;
73816;SDS011;62146;53.232;-1.304;2023-04-01T03:18:33;5.80;;;2.20;;
73816;SDS011;62146;53.232;-1.304;2023-04-01T03:21:12;5.80;;;2.30;;
73816;SDS011;62146;53.232;-1.304;2023-04-01T03:23:41;5.13;;;1.88;;
73816;SDS011;62146;53.232;-1.304;2023-04-01T03:26:07;5.53;;;1.70;;
73816;SDS011;62146;53.232;-1.304;2023-04-01T03:28:34;5.97;;;2.10;;
73816;SDS011;62146;53.232;-1.304;2023-04-01T03:31:01;4.30;;;1.90;;
73816;SDS011;62146;53.232;-1.304;2023-04-01T03:33:28;5.20;;;1.67;;
73816;SDS011;62146;53.232;-1.304;2023-04-01T03:35:55;5.68;;;2.03;;
73816;SDS011;62146;53.232;-1.304;2023-04-01T03:38:22;5.50;;;1.80;;
73816;SDS011;62146;53.232;-1.304;2023-04-01T03:40:48;4.38;;;1.92;;
73816;SDS011;62146;53.232;-1.304;2023-04-01T03:43:15;5.95;;;1.90;;
73816;SDS011;62146;53.232;-1.304;2023-04-01T03:45:43;4.95;;;1.80;;
73816;SDS011;62146;53.232;-1.304;2023-04-01T03:48:11;4.75;;;1.88;;
73816;SDS011;62146;53.232;-1.304;2023-04-01T03:50:38;4.87;;;1.70;;
73816;SDS011;62146;53.232;-1.304;2023-04-01T03:53:04;5.53;;;1.92;;
73816;SDS011;62146;53.232;-1.304;2023-04-01T03:55:31;5.03;;;2.22;;
73816;SDS011;62146;53.232;-1.304;2023-04-01T03:57:58;5.40;;;1.73;;
73816;SDS011;62146;53.232;-1.304;2023-04-01T04:00:28;7.00;;;1.85;;
73816;SDS011;62146;53.232;-1.304;2023-04-01T04:02:57;4.87;;;1.47;;
73816;SDS011;62146;53.232;-1.304;2023-04-01T04:05:24;5.97;;;1.70;;
73816;SDS011;62146;53.232;-1.304;2023-04-01T04:07:51;5.80;;;1.70;;
73816;SDS011;62146;53.232;-1.304;2023-04-01T04:10:18;4.35;;;1.73;;
73816;SDS011;62146;53.232;-1.304;2023-04-01T04:12:45;4.93;;;1.50;;
73816;SDS011;62146;53.232;-1.304;2023-04-01T04:15:12;5.40;;;1.80;;
73816;SDS011;62146;53.232;-1.304;2023-04-01T04:17:39;6.03;;;1.55;;
73816;SDS011;62146;53.232;-1.304;2023-04-01T04:20:06;6.22;;;1.73;;
73816;SDS011;62146;53.232;-1.304;2023-04-01T04:22:33;5.03;;;1.80;;
73816;SDS011;62146;53.232;-1.304;2023-04-01T04:24:59;5.45;;;1.85;;
73816;SDS011;62146;53.232;-1.304;2023-04-01T04:27:26;5.40;;;1.57;;
73816;SDS011;62146;53.232;-1.304;2023-04-01T04:29:53;4.68;;;1.73;;
73816;SDS011;62146;53.232;-1.304;2023-04-01T04:32:19;5.10;;;1.90;;
73816;SDS011;62146;53.232;-1.304;2023-04-01T04:34:46;4.50;;;1.70;;
73816;SDS011;62146;53.232;-1.304;2023-04-01T04:37:12;6.68;;;1.80;;
73816;SDS011;62146;53.232;-1.304;2023-04-01T04:39:39;6.63;;;1.80;;
73816;SDS011;62146;53.232;-1.304;2023-04-01T04:42:06;5.60;;;1.58;;
73816;SDS011;62146;53.232;-1.304;2023-04-01T04:44:32;5.43;;;1.50;;
73816;SDS011;62146;53.232;-1.304;2023-04-01T04:46:59;4.78;;;1.60;;
73816;SDS011;62146;53.232;-1.304;2023-04-01T04:49:25;4.60;;;1.65;;
73816;SDS011;62146;53.232;-1.304;2023-04-01T04:51:52;6.57;;;1.60;;
73816;SDS011;62146;53.232;-1.304;2023-04-01T04:54:18;4.43;;;1.58;;
73816;SDS011;62146;53.232;-1.304;2023-04-01T04:56:45;5.97;;;1.50;;
73816;SDS011;62146;53.232;-1.304;2023-04-01T04:59:12;5.30;;;1.70;;
73816;SDS011;62146;53.232;-1.304;2023-04-01T05:01:39;3.53;;;1.20;;
73816;SDS011;62146;53.232;-1.304;2023-04-01T05:04:05;5.13;;;1.20;;
73816;SDS011;62146;53.232;-1.304;2023-04-01T05:06:32;5.93;;;1.65;;
73816;SDS011;62146;53.232;-1.304;2023-04-01T05:08:58;5.82;;;1.45;;
73816;SDS011;62146;53.232;-1.304;2023-04-01T05:11:25;3.85;;;1.20;;
73816;SDS011;62146;53.232;-1.304;2023-04-01T05:13:52;4.90;;;1.50;;
73816;SDS011;62146;53.232;-1.304;2023-04-01T05:16:19;4.10;;;1.53;;
73816;SDS011;62146;53.232;-1.304;2023-04-01T05:18:46;4.13;;;1.20;;
73816;SDS011;62146;53.232;-1.304;2023-04-01T05:21:14;4.53;;;1.40;;
73816;SDS011;62146;53.232;-1.304;2023-04-01T05:23:41;3.30;;;1.25;;
73816;SDS011;62146;53.232;-1.304;2023-04-01T05:26:10;6.78;;;1.73;;
73816;SDS011;62146;53.232;-1.304;2023-04-01T05:28:38;5.27;;;1.40;;
73816;SDS011;62146;53.232;-1.304;2023-04-01T05:31:05;3.50;;;0.98;;
73816;SDS011;62146;53.232;-1.304;2023-04-01T05:33:32;4.97;;;1.30;;
73816;SDS011;62146;53.232;-1.304;2023-04-01T05:36:06;5.05;;;1.33;;
73816;SDS011;62146;53.232;-1.304;2023-04-01T05:38:37;4.30;;;1.25;;
73816;SDS011;62146;53.232;-1.304;2023-04-01T05:41:04;3.73;;;1.13;;
73816;SDS011;62146;53.232;-1.304;2023-04-01T05:43:31;6.20;;;1.40;;
73816;SDS011;62146;53.232;-1.304;2023-04-01T05:45:57;7.13;;;1.38;;
73816;SDS011;62146;53.232;-1.304;2023-04-01T05:48:24;4.32;;;1.30;;
73816;SDS011;62146;53.232;-1.304;2023-04-01T05:50:51;3.85;;;1.20;;
73816;SDS011;62146;53.232;-1.304;2023-04-01T05:53:18;5.93;;;1.23;;
73816;SDS011;62146;53.232;-1.304;2023-04-01T05:55:44;3.25;;;1.13;;
73816;SDS011;62146;53.232;-1.304;2023-04-01T05:58:11;4.38;;;1.20;;
73816;SDS011;62146;53.232;-1.304;2023-04-01T06:00:37;4.70;;;1.40;;
73816;SDS011;62146;53.232;-1.304;2023-04-01T06:03:04;3.28;;;1.20;;
73816;SDS011;62146;53.232;-1.304;2023-04-01T06:05:36;5.17;;;1.20;;
73816;SDS011;62146;53.232;-1.304;2023-04-01T06:08:10;3.30;;;1.00;;
73816;SDS011;62146;53.232;-1.304;2023-04-01T06:24:37;4.03;;;1.33;;
73816;SDS011;62146;53.232;-1.304;2023-04-01T06:38:15;5.45;;;1.67;;
73816;SDS011;62146;53.232;-1.304;2023-04-01T06:44:04;4.50;;;1.67;;
73816;SDS011;62146;53.232;-1.304;2023-04-01T06:54:35;7.30;;;1.73;;
73816;SDS011;62146;53.232;-1.304;2023-04-01T06:57:20;5.55;;;1.40;;
73816;SDS011;62146;53.232;-1.304;2023-04-01T06:59:55;4.90;;;1.20;;
73816;SDS011;62146;53.232;-1.304;2023-04-01T07:02:32;3.90;;;1.20;;
73816;SDS011;62146;53.232;-1.304;2023-04-01T07:05:05;5.38;;;1.40;;
73816;SDS011;62146;53.232;-1.304;2023-04-01T07:07:43;5.45;;;1.45;;
73816;SDS011;62146;53.232;-1.304;2023-04-01T07:10:19;3.90;;;1.40;;
73816;SDS011;62146;53.232;-1.304;2023-04-01T07:13:00;3.73;;;1.20;;
73816;SDS011;62146;53.232;-1.304;2023-04-01T07:15:39;3.40;;;1.20;;
73816;SDS011;62146;53.232;-1.304;2023-04-01T07:18:56;4.75;;;1.48;;
73816;SDS011;62146;53.232;-1.304;2023-04-01T07:20:58;4.35;;;1.10;;
73816;SDS011;62146;53.232;-1.304;2023-04-01T07:23:36;3.67;;;1.30;;
73816;SDS011;62146;53.232;-1.304;2023-04-01T07:26:17;5.00;;;1.13;;
73816;SDS011;62146;53.232;-1.304;2023-04-01T07:28:47;4.22;;;1.30;;
73816;SDS011;62146;53.232;-1.304;2023-04-01T07:40:18;5.43;;;1.20;;
73816;SDS011;62146;53.232;-1.304;2023-04-01T07:48:37;4.38;;;1.30;;
73816;SDS011;62146;53.232;-1.304;2023-04-01T07:53:53;6.53;;;1.50;;
73816;SDS011;62146;53.232;-1.304;2023-04-01T08:01:57;5.50;;;1.52;;
73816;SDS011;62146;53.232;-1.304;2023-04-01T08:04:48;6.55;;;1.60;;
73816;SDS011;62146;53.232;-1.304;2023-04-01T08:07:23;5.23;;;1.20;;
73816;SDS011;62146;53.232;-1.304;2023-04-01T08:10:02;3.92;;;1.48;;
73816;SDS011;62146;53.232;-1.304;2023-04-01T08:15:32;5.18;;;1.30;;
73816;SDS011;62146;53.232;-1.304;2023-04-01T08:21:02;5.20;;;1.70;;
73816;SDS011;62146;53.232;-1.304;2023-04-01T08:23:36;3.95;;;1.40;;
73816;SDS011;62146;53.232;-1.304;2023-04-01T08:31:31;4.70;;;1.65;;
73816;SDS011;62146;53.232;-1.304;2023-04-01T08:34:02;3.90;;;1.47;;
73816;SDS011;62146;53.232;-1.304;2023-04-01T08:36:36;5.32;;;1.52;;
73816;SDS011;62146;53.232;-1.304;2023-04-01T08:39:09;5.00;;;1.67;;
73816;SDS011;62146;53.232;-1.304;2023-04-01T08:47:09;5.30;;;1.60;;
73816;SDS011;62146;53.232;-1.304;2023-04-01T09:03:22;4.35;;;1.48;;
73816;SDS011;62146;53.232;-1.304;2023-04-01T09:06:45;5.07;;;1.60;;
73816;SDS011;62146;53.232;-1.304;2023-04-01T09:23:00;4.10;;;1.50;;
73816;SDS011;62146;53.232;-1.304;2023-04-01T09:26:02;5.03;;;1.60;;
73816;SDS011;62146;53.232;-1.304;2023-04-01T09:28:53;4.30;;;1.40;;
73816;SDS011;62146;53.232;-1.304;2023-04-01T09:40:26;3.35;;;1.40;;
73816;SDS011;62146;53.232;-1.304;2023-04-01T09:45:42;3.70;;;1.48;;
73816;SDS011;62146;53.232;-1.304;2023-04-01T09:48:18;4.40;;;1.60;;
73816;SDS011;62146;53.232;-1.304;2023-04-01T09:51:10;4.93;;;1.70;;
73816;SDS011;62146;53.232;-1.304;2023-04-01T10:42:47;4.80;;;1.60;;
73816;SDS011;62146;53.232;-1.304;2023-04-01T11:03:10;5.75;;;1.42;;
73816;SDS011;62146;53.232;-1.304;2023-04-01T11:42:48;4.30;;;1.60;;
73816;SDS011;62146;53.232;-1.304;2023-04-01T11:54:11;2.88;;;0.90;;
73816;SDS011;62146;53.232;-1.304;2023-04-01T12:05:28;2.77;;;0.80;;
73816;SDS011;62146;53.232;-1.304;2023-04-01T12:10:54;2.88;;;1.10;;
73816;SDS011;62146;53.232;-1.304;2023-04-01T12:24:58;2.95;;;0.98;;
73816;SDS011;62146;53.232;-1.304;2023-04-01T12:27:38;5.15;;;1.30;;
73816;SDS011;62146;53.232;-1.304;2023-04-01T12:33:18;2.60;;;1.00;;
73816;SDS011;62146;53.232;-1.304;2023-04-01T12:44:53;3.75;;;1.20;;
73816;SDS011;62146;53.232;-1.304;2023-04-01T12:47:30;2.17;;;0.90;;
73816;SDS011;62146;53.232;-1.304;2023-04-01T12:55:52;2.78;;;0.90;;
73816;SDS011;62146;53.232;-1.304;2023-04-01T13:03:41;3.65;;;1.08;;
73816;SDS011;62146;53.232;-1.304;2023-04-01T13:20:57;3.10;;;1.00;;
73816;SDS011;62146;53.232;-1.304;2023-04-01T13:26:27;3.42;;;1.20;;
73816;SDS011;62146;53.232;-1.304;2023-04-01T13:32:03;2.40;;;0.93;;
73816;SDS011;62146;53.232;-1.304;2023-04-01T13:43:42;4.43;;;1.10;;
73816;SDS011;62146;53.232;-1.304;2023-04-01T13:48:54;4.28;;;1.45;;
73816;SDS011;62146;53.232;-1.304;2023-04-01T13:54:25;3.55;;;0.98;;
73816;SDS011;62146;53.232;-1.304;2023-04-01T13:57:14;2.90;;;1.03;;
73816;SDS011;62146;53.232;-1.304;2023-04-01T14:03:03;3.20;;;0.82;;
73816;SDS011;62146;53.232;-1.304;2023-04-01T14:11:30;2.83;;;1.00;;
73816;SDS011;62146;53.232;-1.304;2023-04-01T14:30:26;2.95;;;1.00;;
73816;SDS011;62146;53.232;-1.304;2023-04-01T14:32:57;3.22;;;1.00;;
73816;SDS011;62146;53.232;-1.304;2023-04-01T14:35:58;4.05;;;0.77;;
73816;SDS011;62146;53.232;-1.304;2023-04-01T14:41:39;2.75;;;0.88;;
73816;SDS011;62146;53.232;-1.304;2023-04-01T14:49:22;2.70;;;1.00;;
73816;SDS011;62146;53.232;-1.304;2023-04-01T14:51:56;3.23;;;1.53;;
73816;SDS011;62146;53.232;-1.304;2023-04-01T14:54:36;4.60;;;1.10;;
73816;SDS011;62146;53.232;-1.304;2023-04-01T14:57:13;4.63;;;1.15;;
73816;SDS011;62146;53.232;-1.304;2023-04-01T14:59:41;3.75;;;1.10;;
73816;SDS011;62146;53.232;-1.304;2023-04-01T15:18:42;4.13;;;1.03;;
73816;SDS011;62146;53.232;-1.304;2023-04-01T15:24:07;3.78;;;1.40;;
73816;SDS011;62146;53.232;-1.304;2023-04-01T15:32:44;3.63;;;1.30;;
73816;SDS011;62146;53.232;-1.304;2023-04-01T15:35:36;5.68;;;1.30;;
73816;SDS011;62146;53.232;-1.304;2023-04-01T15:40:45;3.17;;;1.25;;
73816;SDS011;62146;53.232;-1.304;2023-04-01T15:51:31;3.40;;;1.20;;
73816;SDS011;62146;53.232;-1.304;2023-04-01T15:59:54;4.13;;;1.20;;
73816;SDS011;62146;53.232;-1.304;2023-04-01T16:02:43;3.20;;;1.40;;
73816;SDS011;62146;53.232;-1.304;2023-04-01T16:05:25;4.10;;;1.50;;
73816;SDS011;62146;53.232;-1.304;2023-04-01T16:08:09;2.80;;;1.20;;
73816;SDS011;62146;53.232;-1.304;2023-04-01T16:11:22;3.85;;;1.60;;
73816;SDS011;62146;53.232;-1.304;2023-04-01T16:22:50;3.50;;;1.40;;
73816;SDS011;62146;53.232;-1.304;2023-04-01T16:25:29;5.32;;;1.50;;
73816;SDS011;62146;53.232;-1.304;2023-04-01T16:31:06;4.07;;;1.60;;
73816;SDS011;62146;53.232;-1.304;2023-04-01T16:39:26;7.40;;;1.80;;
73816;SDS011;62146;53.232;-1.304;2023-04-01T16:47:45;6.07;;;1.77;;
73816;SDS011;62146;53.232;-1.304;2023-04-01T16:55:50;6.93;;;2.10;;
73816;SDS011;62146;53.232;-1.304;2023-04-01T17:01:07;4.88;;;2.00;;
73816;SDS011;62146;53.232;-1.304;2023-04-01T17:03:42;7.05;;;1.88;;
73816;SDS011;62146;53.232;-1.304;2023-04-01T17:06:18;8.00;;;1.88;;
73816;SDS011;62146;53.232;-1.304;2023-04-01T17:09:55;5.57;;;2.00;;
73816;SDS011;62146;53.232;-1.304;2023-04-01T17:23:14;6.03;;;1.90;;
73816;SDS011;62146;53.232;-1.304;2023-04-01T17:26:00;6.40;;;2.10;;
73816;SDS011;62146;53.232;-1.304;2023-04-01T17:48:18;5.07;;;2.05;;
73816;SDS011;62146;53.232;-1.304;2023-04-01T17:58:20;6.72;;;2.67;;
73816;SDS011;62146;53.232;-1.304;2023-04-01T18:01:38;5.70;;;2.40;;
73816;SDS011;62146;53.232;-1.304;2023-04-01T18:04:05;8.50;;;2.97;;
73816;SDS011;62146;53.232;-1.304;2023-04-01T18:21:17;8.77;;;2.58;;
73816;SDS011;62146;53.232;-1.304;2023-04-01T18:23:55;5.10;;;2.22;;
73816;SDS011;62146;53.232;-1.304;2023-04-01T18:26:29;5.95;;;2.40;;
73816;SDS011;62146;53.232;-1.304;2023-04-01T18:29:04;4.90;;;2.85;;
73816;SDS011;62146;53.232;-1.304;2023-04-01T18:37:47;6.13;;;2.67;;
73816;SDS011;62146;53.232;-1.304;2023-04-01T18:40:30;6.65;;;2.88;;
73816;SDS011;62146;53.232;-1.304;2023-04-01T18:43:11;5.90;;;2.80;;
73816;SDS011;62146;53.232;-1.304;2023-04-01T18:45:54;5.87;;;2.70;;
73816;SDS011;62146;53.232;-1.304;2023-04-01T18:48:33;6.60;;;2.58;;
73816;SDS011;62146;53.232;-1.304;2023-04-01T18:51:20;9.57;;;3.10;;
73816;SDS011;62146;53.232;-1.304;2023-04-01T18:53:58;6.72;;;2.78;;
73816;SDS011;62146;53.232;-1.304;2023-04-01T19:02:14;5.75;;;2.80;;
73816;SDS011;62146;53.232;-1.304;2023-04-01T19:07:51;8.07;;;2.83;;
73816;SDS011;62146;53.232;-1.304;2023-04-01T19:10:40;6.07;;;2.90;;
73816;SDS011;62146;53.232;-1.304;2023-04-01T19:15:52;6.65;;;2.70;;
73816;SDS011;62146;53.232;-1.304;2023-04-01T19:21:58;5.97;;;2.72;;
73816;SDS011;62146;53.232;-1.304;2023-04-01T19:40:53;4.53;;;2.70;;
73816;SDS011;62146;53.232;-1.304;2023-04-01T19:43:39;6.75;;;3.03;;
73816;SDS011;62146;53.232;-1.304;2023-04-01T20:08:44;5.93;;;2.80;;
73816;SDS011;62146;53.232;-1.304;2023-04-01T20:14:13;6.93;;;2.70;;
73816;SDS011;62146;53.232;-1.304;2023-04-01T20:19:27;6.30;;;2.67;;
73816;SDS011;62146;53.232;-1.304;2023-04-01T20:21:59;6.17;;;2.97;;
73816;SDS011;62146;53.232;-1.304;2023-04-01T20:24:41;6.85;;;2.80;;
73816;SDS011;62146;53.232;-1.304;2023-04-01T20:29:46;6.30;;;2.78;;
73816;SDS011;62146;53.232;-1.304;2023-04-01T21:11:35;5.53;;;1.70;;
73816;SDS011;62146;53.232;-1.304;2023-04-01T21:23:14;4.72;;;2.00;;
73816;SDS011;62146;53.232;-1.304;2023-04-01T21:28:40;5.13;;;1.80;;
73816;SDS011;62146;53.232;-1.304;2023-04-01T21:45:02;4.87;;;1.80;;
73816;SDS011;62146;53.232;-1.304;2023-04-01T21:47:45;5.25;;;1.80;;
73816;SDS011;62146;53.232;-1.304;2023-04-01T21:52:56;4.28;;;1.90;;
73816;SDS011;62146;53.232;-1.304;2023-04-01T22:01:18;3.97;;;1.75;;
73816;SDS011;62146;53.232;-1.304;2023-04-01T22:07:14;4.18;;;1.92;;
73816;SDS011;62146;53.232;-1.304;2023-04-01T22:12:38;4.17;;;1.87;;
73816;SDS011;62146;53.232;-1.304;2023-04-01T22:15:21;4.47;;;2.00;;
73816;SDS011;62146;53.232;-1.304;2023-04-01T22:18:00;4.40;;;1.85;;
73816;SDS011;62146;53.232;-1.304;2023-04-01T22:20:42;5.85;;;1.83;;
73816;SDS011;62146;53.232;-1.304;2023-04-01T22:32:11;4.32;;;1.55;;
73816;SDS011;62146;53.232;-1.304;2023-04-01T22:34:59;4.43;;;1.70;;
73816;SDS011;62146;53.232;-1.304;2023-04-01T22:42:47;3.20;;;1.50;;
73816;SDS011;62146;53.232;-1.304;2023-04-01T22:45:43;3.65;;;1.50;;
73816;SDS011;62146;53.232;-1.304;2023-04-01T22:56:36;3.67;;;1.40;;
73816;SDS011;62146;53.232;-1.304;2023-04-01T22:59:30;4.38;;;1.52;;
73816;SDS011;62146;53.232;-1.304;2023-04-01T23:02:00;3.85;;;1.20;;
73816;SDS011;62146;53.232;-1.304;2023-04-01T23:04:33;3.30;;;1.33;;
73816;SDS011;62146;53.232;-1.304;2023-04-01T23:07:14;4.67;;;1.40;;
73816;SDS011;62146;53.232;-1.304;2023-04-01T23:09:55;3.60;;;1.30;;
73816;SDS011;62146;53.232;-1.304;2023-04-01T23:12:23;3.25;;;1.30;;
73816;SDS011;62146;53.232;-1.304;2023-04-01T23:14:54;2.90;;;1.20;;
73816;SDS011;62146;53.232;-1.304;2023-04-01T23:28:41;3.83;;;1.40;;
73816;SDS011;62146;53.232;-1.304;2023-04-01T23:33:56;3.67;;;1.43;;
73816;SDS011;62146;53.232;-1.304;2023-04-01T23:36:28;3.65;;;1.30;;
73816;SDS011;62146;53.232;-1.304;2023-04-01T23:39:03;4.90;;;1.80;;
73816;SDS011;62146;53.232;-1.304;2023-04-01T23:41:37;4.22;;;1.50;;
73816;SDS011;62146;53.232;-1.304;2023-04-01T23:44:08;3.63;;;1.50;;
73816;SDS011;62146;53.232;-1.304;2023-04-01T23:46:38;5.40;;;1.60;;
73816;SDS011;62146;53.232;-1.304;2023-04-01T23:49:09;3.60;;;1.70;;
73816;SDS011;62146;53.232;-1.304;2023-04-01T23:52:04;4.97;;;1.83;;
73816;SDS011;62146;53.232;-1.304;2023-04-01T23:54:42;4.75;;;1.70;;
73816;SDS011;62146;53.232;-1.304;2023-04-01T23:57:22;3.97;;;1.80;;
